sensor_id;sensor_type;location;lat;lon;timestamp;P1;durP1;ratioP1;P2;durP2;ratioP2
39846;SDS011;25517;52.422;10.782;2023-05-07T11:15:06;12.27;;;9.48;;
39846;SDS011;25517;52.422;10.782;2023-05-07T11:17:33;15.80;;;9.25;;
39846;SDS011;25517;52.422;10.782;2023-05-07T11:20:02;9.60;;;7.78;;
39846;SDS011;25517;52.422;10.782;2023-05-07T11:25:01;11.00;;;8.65;;
39846;SDS011;25517;52.422;10.782;2023-05-07T11:27:28;11.40;;;8.90;;
39846;SDS011;25517;52.422;10.782;2023-05-07T11:29:54;10.48;;;8.93;;
39846;SDS011;25517;52.422;10.782;2023-05-07T11:32:30;11.68;;;8.27;;
39846;SDS011;25517;52.422;10.782;2023-05-07T11:34:59;9.98;;;7.63;;
39846;SDS011;25517;52.422;10.782;2023-05-07T11:39:44;8.07;;;7.22;;
39846;SDS011;25517;52.422;10.782;2023-05-07T11:45:19;8.87;;;7.93;;
39846;SDS011;25517;52.422;10.782;2023-05-07T11:47:50;9.85;;;8.43;;
39846;SDS011;25517;52.422;10.782;2023-05-07T11:50:15;10.05;;;8.65;;
39846;SDS011;25517;52.422;10.782;2023-05-07T11:52:49;9.30;;;7.72;;
39846;SDS011;25517;52.422;10.782;2023-05-07T11:55:17;9.95;;;8.38;;
39846;SDS011;25517;52.422;10.782;2023-05-07T11:57:44;10.70;;;8.15;;
39846;SDS011;25517;52.422;10.782;2023-05-07T12:00:10;10.77;;;8.30;;
39846;SDS011;25517;52.422;10.782;2023-05-07T12:02:36;9.43;;;8.30;;
39846;SDS011;25517;52.422;10.782;2023-05-07T12:05:02;10.18;;;8.65;;
39846;SDS011;25517;52.422;10.782;2023-05-07T12:07:27;9.63;;;8.13;;
39846;SDS011;25517;52.422;10.782;2023-05-07T12:09:53;13.27;;;9.25;;
39846;SDS011;25517;52.422;10.782;2023-05-07T12:12:19;12.73;;;8.52;;
39846;SDS011;25517;52.422;10.782;2023-05-07T12:14:44;11.60;;;9.20;;
39846;SDS011;25517;52.422;10.782;2023-05-07T12:17:11;10.63;;;7.70;;
39846;SDS011;25517;52.422;10.782;2023-05-07T12:19:39;8.70;;;7.80;;
39846;SDS011;25517;52.422;10.782;2023-05-07T12:22:09;8.82;;;7.70;;
39846;SDS011;25517;52.422;10.782;2023-05-07T12:24:48;8.57;;;7.65;;
39846;SDS011;25517;52.422;10.782;2023-05-07T12:27:21;10.18;;;7.65;;
39846;SDS011;25517;52.422;10.782;2023-05-07T12:29:46;10.45;;;7.80;;
39846;SDS011;25517;52.422;10.782;2023-05-07T12:32:13;9.10;;;7.45;;
39846;SDS011;25517;52.422;10.782;2023-05-07T12:34:43;9.48;;;7.72;;
39846;SDS011;25517;52.422;10.782;2023-05-07T12:37:10;8.20;;;6.78;;
39846;SDS011;25517;52.422;10.782;2023-05-07T12:39:35;9.27;;;7.10;;
39846;SDS011;25517;52.422;10.782;2023-05-07T12:42:01;11.25;;;7.75;;
39846;SDS011;25517;52.422;10.782;2023-05-07T12:44:31;14.85;;;8.20;;
39846;SDS011;25517;52.422;10.782;2023-05-07T12:46:58;8.68;;;7.78;;
39846;SDS011;25517;52.422;10.782;2023-05-07T12:49:26;10.02;;;7.13;;
39846;SDS011;25517;52.422;10.782;2023-05-07T12:51:53;9.30;;;7.53;;
39846;SDS011;25517;52.422;10.782;2023-05-07T12:54:31;11.10;;;7.30;;
39846;SDS011;25517;52.422;10.782;2023-05-07T12:57:02;8.07;;;6.75;;
39846;SDS011;25517;52.422;10.782;2023-05-07T12:59:32;7.00;;;6.03;;
39846;SDS011;25517;52.422;10.782;2023-05-07T13:02:02;7.38;;;6.63;;
39846;SDS011;25517;52.422;10.782;2023-05-07T13:04:28;8.40;;;7.38;;
39846;SDS011;25517;52.422;10.782;2023-05-07T13:06:54;8.02;;;6.97;;
39846;SDS011;25517;52.422;10.782;2023-05-07T13:09:19;7.82;;;6.72;;
39846;SDS011;25517;52.422;10.782;2023-05-07T13:11:45;8.32;;;6.60;;
39846;SDS011;25517;52.422;10.782;2023-05-07T13:14:10;7.65;;;6.78;;
39846;SDS011;25517;52.422;10.782;2023-05-07T13:16:36;8.45;;;6.35;;
39846;SDS011;25517;52.422;10.782;2023-05-07T13:19:02;7.28;;;6.50;;
39846;SDS011;25517;52.422;10.782;2023-05-07T13:21:27;8.52;;;6.57;;
39846;SDS011;25517;52.422;10.782;2023-05-07T13:23:53;6.88;;;6.18;;
39846;SDS011;25517;52.422;10.782;2023-05-07T13:26:18;6.82;;;6.05;;
39846;SDS011;25517;52.422;10.782;2023-05-07T13:28:45;10.13;;;7.32;;
39846;SDS011;25517;52.422;10.782;2023-05-07T13:31:11;11.82;;;7.43;;
39846;SDS011;25517;52.422;10.782;2023-05-07T13:33:36;7.53;;;6.47;;
39846;SDS011;25517;52.422;10.782;2023-05-07T13:36:02;8.57;;;7.10;;
39846;SDS011;25517;52.422;10.782;2023-05-07T13:38:30;9.50;;;6.80;;
39846;SDS011;25517;52.422;10.782;2023-05-07T13:40:56;9.07;;;6.53;;
39846;SDS011;25517;52.422;10.782;2023-05-07T13:43:21;6.85;;;5.88;;
39846;SDS011;25517;52.422;10.782;2023-05-07T13:45:47;10.20;;;6.72;;
39846;SDS011;25517;52.422;10.782;2023-05-07T13:48:12;8.75;;;6.97;;
39846;SDS011;25517;52.422;10.782;2023-05-07T13:50:37;9.18;;;5.93;;
39846;SDS011;25517;52.422;10.782;2023-05-07T13:53:03;8.63;;;6.53;;
39846;SDS011;25517;52.422;10.782;2023-05-07T13:55:29;8.57;;;6.80;;
39846;SDS011;25517;52.422;10.782;2023-05-07T13:57:59;7.50;;;6.40;;
39846;SDS011;25517;52.422;10.782;2023-05-07T14:00:26;7.68;;;5.88;;
39846;SDS011;25517;52.422;10.782;2023-05-07T14:02:53;7.50;;;6.00;;
39846;SDS011;25517;52.422;10.782;2023-05-07T14:05:19;8.88;;;5.88;;
39846;SDS011;25517;52.422;10.782;2023-05-07T14:07:44;6.57;;;5.82;;
39846;SDS011;25517;52.422;10.782;2023-05-07T14:10:10;9.65;;;6.78;;
39846;SDS011;25517;52.422;10.782;2023-05-07T14:12:36;6.95;;;6.22;;
39846;SDS011;25517;52.422;10.782;2023-05-07T14:15:02;8.00;;;6.25;;
39846;SDS011;25517;52.422;10.782;2023-05-07T14:17:28;5.63;;;4.90;;
39846;SDS011;25517;52.422;10.782;2023-05-07T14:19:54;10.40;;;6.95;;
39846;SDS011;25517;52.422;10.782;2023-05-07T14:22:20;7.95;;;6.18;;
39846;SDS011;25517;52.422;10.782;2023-05-07T14:24:46;12.25;;;6.07;;
39846;SDS011;25517;52.422;10.782;2023-05-07T14:27:12;6.93;;;5.60;;
39846;SDS011;25517;52.422;10.782;2023-05-07T14:29:37;5.95;;;5.30;;
39846;SDS011;25517;52.422;10.782;2023-05-07T14:32:03;5.72;;;5.13;;
39846;SDS011;25517;52.422;10.782;2023-05-07T14:34:29;7.40;;;5.28;;
39846;SDS011;25517;52.422;10.782;2023-05-07T14:36:54;10.43;;;5.88;;
39846;SDS011;25517;52.422;10.782;2023-05-07T14:39:20;6.20;;;5.60;;
39846;SDS011;25517;52.422;10.782;2023-05-07T14:41:47;7.47;;;5.85;;
39846;SDS011;25517;52.422;10.782;2023-05-07T14:44:12;7.95;;;6.38;;
39846;SDS011;25517;52.422;10.782;2023-05-07T14:46:38;6.00;;;5.40;;
39846;SDS011;25517;52.422;10.782;2023-05-07T14:49:03;5.75;;;5.15;;
39846;SDS011;25517;52.422;10.782;2023-05-07T14:51:29;5.40;;;4.63;;
39846;SDS011;25517;52.422;10.782;2023-05-07T14:53:55;5.88;;;4.80;;
39846;SDS011;25517;52.422;10.782;2023-05-07T14:56:21;6.32;;;5.22;;
39846;SDS011;25517;52.422;10.782;2023-05-07T14:58:47;7.75;;;5.40;;
39846;SDS011;25517;52.422;10.782;2023-05-07T15:01:15;9.95;;;6.20;;
39846;SDS011;25517;52.422;10.782;2023-05-07T15:03:41;5.97;;;5.10;;
39846;SDS011;25517;52.422;10.782;2023-05-07T15:06:07;9.65;;;5.65;;
39846;SDS011;25517;52.422;10.782;2023-05-07T15:08:32;6.60;;;5.80;;
39846;SDS011;25517;52.422;10.782;2023-05-07T15:10:58;6.50;;;5.57;;
39846;SDS011;25517;52.422;10.782;2023-05-07T15:13:23;7.85;;;5.50;;
39846;SDS011;25517;52.422;10.782;2023-05-07T15:15:49;5.88;;;5.28;;
39846;SDS011;25517;52.422;10.782;2023-05-07T15:18:15;6.65;;;5.65;;
39846;SDS011;25517;52.422;10.782;2023-05-07T15:20:41;7.07;;;5.50;;
39846;SDS011;25517;52.422;10.782;2023-05-07T15:23:07;9.82;;;6.15;;
39846;SDS011;25517;52.422;10.782;2023-05-07T15:25:40;5.32;;;4.82;;
39846;SDS011;25517;52.422;10.782;2023-05-07T15:28:05;7.60;;;4.78;;
39846;SDS011;25517;52.422;10.782;2023-05-07T15:30:31;5.60;;;4.90;;
39846;SDS011;25517;52.422;10.782;2023-05-07T15:32:57;6.05;;;4.90;;
39846;SDS011;25517;52.422;10.782;2023-05-07T15:35:23;8.98;;;5.57;;
39846;SDS011;25517;52.422;10.782;2023-05-07T15:37:50;7.90;;;6.30;;
39846;SDS011;25517;52.422;10.782;2023-05-07T15:40:16;7.10;;;5.80;;
39846;SDS011;25517;52.422;10.782;2023-05-07T15:42:42;8.05;;;6.07;;
39846;SDS011;25517;52.422;10.782;2023-05-07T15:45:09;7.57;;;6.47;;
39846;SDS011;25517;52.422;10.782;2023-05-07T15:47:35;14.68;;;7.20;;
39846;SDS011;25517;52.422;10.782;2023-05-07T15:50:01;11.25;;;6.88;;
39846;SDS011;25517;52.422;10.782;2023-05-07T15:52:27;7.57;;;6.78;;
39846;SDS011;25517;52.422;10.782;2023-05-07T15:54:54;7.22;;;6.50;;
39846;SDS011;25517;52.422;10.782;2023-05-07T15:57:20;6.95;;;6.18;;
39846;SDS011;25517;52.422;10.782;2023-05-07T15:59:46;9.15;;;6.50;;
39846;SDS011;25517;52.422;10.782;2023-05-07T16:02:12;6.80;;;6.10;;
39846;SDS011;25517;52.422;10.782;2023-05-07T16:04:38;8.73;;;6.15;;
39846;SDS011;25517;52.422;10.782;2023-05-07T16:07:04;7.35;;;5.53;;
39846;SDS011;25517;52.422;10.782;2023-05-07T16:09:29;6.25;;;5.03;;
39846;SDS011;25517;52.422;10.782;2023-05-07T16:11:55;7.22;;;5.32;;
39846;SDS011;25517;52.422;10.782;2023-05-07T16:14:20;6.82;;;5.32;;
39846;SDS011;25517;52.422;10.782;2023-05-07T16:16:46;7.20;;;5.22;;
39846;SDS011;25517;52.422;10.782;2023-05-07T16:19:12;6.53;;;5.78;;
39846;SDS011;25517;52.422;10.782;2023-05-07T16:21:38;6.35;;;4.75;;
39846;SDS011;25517;52.422;10.782;2023-05-07T16:24:04;8.10;;;5.25;;
39846;SDS011;25517;52.422;10.782;2023-05-07T16:26:30;7.00;;;6.03;;
39846;SDS011;25517;52.422;10.782;2023-05-07T16:28:56;7.22;;;5.13;;
39846;SDS011;25517;52.422;10.782;2023-05-07T16:31:21;6.07;;;5.13;;
39846;SDS011;25517;52.422;10.782;2023-05-07T16:33:47;6.25;;;5.50;;
39846;SDS011;25517;52.422;10.782;2023-05-07T16:36:12;6.90;;;5.78;;
39846;SDS011;25517;52.422;10.782;2023-05-07T16:38:38;9.00;;;5.82;;
39846;SDS011;25517;52.422;10.782;2023-05-07T16:41:04;5.93;;;5.30;;
39846;SDS011;25517;52.422;10.782;2023-05-07T16:43:30;6.18;;;5.43;;
39846;SDS011;25517;52.422;10.782;2023-05-07T16:45:55;6.43;;;5.25;;
39846;SDS011;25517;52.422;10.782;2023-05-07T16:48:21;5.57;;;5.05;;
39846;SDS011;25517;52.422;10.782;2023-05-07T16:50:47;7.70;;;5.65;;
39846;SDS011;25517;52.422;10.782;2023-05-07T16:53:12;5.50;;;5.00;;
39846;SDS011;25517;52.422;10.782;2023-05-07T16:55:39;6.57;;;5.80;;
39846;SDS011;25517;52.422;10.782;2023-05-07T16:58:05;6.28;;;5.68;;
39846;SDS011;25517;52.422;10.782;2023-05-07T17:00:32;7.90;;;5.78;;
39846;SDS011;25517;52.422;10.782;2023-05-07T17:02:58;8.13;;;5.57;;
39846;SDS011;25517;52.422;10.782;2023-05-07T17:05:23;7.68;;;6.32;;
39846;SDS011;25517;52.422;10.782;2023-05-07T17:07:49;9.45;;;6.10;;
39846;SDS011;25517;52.422;10.782;2023-05-07T17:10:15;8.10;;;5.88;;
39846;SDS011;25517;52.422;10.782;2023-05-07T17:12:41;6.18;;;5.57;;
39846;SDS011;25517;52.422;10.782;2023-05-07T17:15:07;11.02;;;6.95;;
39846;SDS011;25517;52.422;10.782;2023-05-07T17:17:34;8.40;;;5.68;;
39846;SDS011;25517;52.422;10.782;2023-05-07T17:19:59;6.40;;;5.15;;
39846;SDS011;25517;52.422;10.782;2023-05-07T17:22:25;7.47;;;6.00;;
39846;SDS011;25517;52.422;10.782;2023-05-07T17:24:51;9.23;;;6.20;;
39846;SDS011;25517;52.422;10.782;2023-05-07T17:27:16;7.10;;;6.32;;
39846;SDS011;25517;52.422;10.782;2023-05-07T17:29:42;8.60;;;6.15;;
39846;SDS011;25517;52.422;10.782;2023-05-07T17:32:08;6.00;;;5.32;;
39846;SDS011;25517;52.422;10.782;2023-05-07T17:34:33;7.75;;;5.80;;
39846;SDS011;25517;52.422;10.782;2023-05-07T17:36:59;6.97;;;6.28;;
39846;SDS011;25517;52.422;10.782;2023-05-07T17:39:24;6.93;;;6.15;;
39846;SDS011;25517;52.422;10.782;2023-05-07T17:41:50;7.45;;;5.75;;
39846;SDS011;25517;52.422;10.782;2023-05-07T17:44:16;6.82;;;6.13;;
39846;SDS011;25517;52.422;10.782;2023-05-07T17:46:42;7.10;;;6.20;;
39846;SDS011;25517;52.422;10.782;2023-05-07T17:49:07;6.55;;;5.68;;
39846;SDS011;25517;52.422;10.782;2023-05-07T17:51:33;7.50;;;6.07;;
39846;SDS011;25517;52.422;10.782;2023-05-07T17:53:58;6.40;;;5.72;;
39846;SDS011;25517;52.422;10.782;2023-05-07T17:56:24;7.03;;;5.22;;
39846;SDS011;25517;52.422;10.782;2023-05-07T17:58:49;6.65;;;5.95;;
39846;SDS011;25517;52.422;10.782;2023-05-07T18:01:15;8.23;;;5.88;;
39846;SDS011;25517;52.422;10.782;2023-05-07T18:03:41;7.53;;;6.25;;
39846;SDS011;25517;52.422;10.782;2023-05-07T18:06:06;7.55;;;5.97;;
39846;SDS011;25517;52.422;10.782;2023-05-07T18:08:33;8.43;;;5.28;;
39846;SDS011;25517;52.422;10.782;2023-05-07T18:10:59;6.82;;;5.70;;
39846;SDS011;25517;52.422;10.782;2023-05-07T18:13:24;7.15;;;5.65;;
39846;SDS011;25517;52.422;10.782;2023-05-07T18:15:50;5.65;;;5.00;;
39846;SDS011;25517;52.422;10.782;2023-05-07T18:18:15;5.85;;;5.22;;
39846;SDS011;25517;52.422;10.782;2023-05-07T18:20:47;5.20;;;4.68;;
39846;SDS011;25517;52.422;10.782;2023-05-07T18:23:14;6.72;;;5.32;;
39846;SDS011;25517;52.422;10.782;2023-05-07T18:25:40;7.47;;;5.85;;
39846;SDS011;25517;52.422;10.782;2023-05-07T18:28:05;9.40;;;5.10;;
39846;SDS011;25517;52.422;10.782;2023-05-07T18:30:31;6.60;;;5.30;;
39846;SDS011;25517;52.422;10.782;2023-05-07T18:32:56;6.38;;;5.65;;
39846;SDS011;25517;52.422;10.782;2023-05-07T18:35:22;10.98;;;6.47;;
39846;SDS011;25517;52.422;10.782;2023-05-07T18:37:47;7.45;;;5.75;;
39846;SDS011;25517;52.422;10.782;2023-05-07T18:40:13;6.57;;;5.50;;
39846;SDS011;25517;52.422;10.782;2023-05-07T18:42:38;8.48;;;5.50;;
39846;SDS011;25517;52.422;10.782;2023-05-07T18:45:04;7.22;;;4.60;;
39846;SDS011;25517;52.422;10.782;2023-05-07T18:47:30;6.40;;;5.15;;
39846;SDS011;25517;52.422;10.782;2023-05-07T18:49:56;8.40;;;5.70;;
39846;SDS011;25517;52.422;10.782;2023-05-07T18:52:21;7.80;;;5.68;;
39846;SDS011;25517;52.422;10.782;2023-05-07T18:54:47;7.28;;;5.72;;
39846;SDS011;25517;52.422;10.782;2023-05-07T18:57:12;7.05;;;5.72;;
39846;SDS011;25517;52.422;10.782;2023-05-07T18:59:38;6.18;;;5.30;;
39846;SDS011;25517;52.422;10.782;2023-05-07T19:02:03;6.78;;;5.97;;
39846;SDS011;25517;52.422;10.782;2023-05-07T19:04:29;7.57;;;6.10;;
39846;SDS011;25517;52.422;10.782;2023-05-07T19:06:55;6.22;;;5.63;;
39846;SDS011;25517;52.422;10.782;2023-05-07T19:09:21;6.95;;;6.15;;
39846;SDS011;25517;52.422;10.782;2023-05-07T19:11:46;9.05;;;7.25;;
39846;SDS011;25517;52.422;10.782;2023-05-07T19:14:12;7.70;;;6.65;;
39846;SDS011;25517;52.422;10.782;2023-05-07T19:16:37;7.95;;;6.25;;
39846;SDS011;25517;52.422;10.782;2023-05-07T19:19:03;6.60;;;6.00;;
39846;SDS011;25517;52.422;10.782;2023-05-07T19:21:29;7.30;;;6.32;;
39846;SDS011;25517;52.422;10.782;2023-05-07T19:23:55;7.80;;;6.68;;
39846;SDS011;25517;52.422;10.782;2023-05-07T19:26:21;7.32;;;6.60;;
39846;SDS011;25517;52.422;10.782;2023-05-07T19:28:47;7.78;;;6.78;;
39846;SDS011;25517;52.422;10.782;2023-05-07T19:31:20;6.75;;;5.70;;
39846;SDS011;25517;52.422;10.782;2023-05-07T19:33:47;7.88;;;6.18;;
39846;SDS011;25517;52.422;10.782;2023-05-07T19:36:13;7.60;;;6.40;;
39846;SDS011;25517;52.422;10.782;2023-05-07T19:38:39;9.60;;;6.88;;
39846;SDS011;25517;52.422;10.782;2023-05-07T19:41:04;9.35;;;6.40;;
39846;SDS011;25517;52.422;10.782;2023-05-07T19:43:30;8.20;;;6.55;;
39846;SDS011;25517;52.422;10.782;2023-05-07T19:46:00;8.03;;;6.27;;
39846;SDS011;25517;52.422;10.782;2023-05-07T19:48:26;7.22;;;6.35;;
39846;SDS011;25517;52.422;10.782;2023-05-07T19:50:51;10.27;;;6.22;;
39846;SDS011;25517;52.422;10.782;2023-05-07T19:53:17;7.97;;;6.30;;
39846;SDS011;25517;52.422;10.782;2023-05-07T19:55:42;7.55;;;6.10;;
39846;SDS011;25517;52.422;10.782;2023-05-07T19:58:08;7.75;;;6.30;;
39846;SDS011;25517;52.422;10.782;2023-05-07T20:00:34;8.45;;;5.88;;
39846;SDS011;25517;52.422;10.782;2023-05-07T20:03:00;11.65;;;7.15;;
39846;SDS011;25517;52.422;10.782;2023-05-07T20:05:25;6.55;;;5.72;;
39846;SDS011;25517;52.422;10.782;2023-05-07T20:07:52;10.77;;;6.68;;
39846;SDS011;25517;52.422;10.782;2023-05-07T20:10:19;9.05;;;6.00;;
39846;SDS011;25517;52.422;10.782;2023-05-07T20:12:45;7.78;;;6.30;;
39846;SDS011;25517;52.422;10.782;2023-05-07T20:15:10;9.52;;;6.40;;
39846;SDS011;25517;52.422;10.782;2023-05-07T20:17:36;8.52;;;6.63;;
39846;SDS011;25517;52.422;10.782;2023-05-07T20:20:02;7.50;;;6.40;;
39846;SDS011;25517;52.422;10.782;2023-05-07T20:22:30;9.15;;;6.93;;
39846;SDS011;25517;52.422;10.782;2023-05-07T20:24:57;9.02;;;7.70;;
39846;SDS011;25517;52.422;10.782;2023-05-07T20:27:22;9.52;;;7.20;;
39846;SDS011;25517;52.422;10.782;2023-05-07T20:29:50;11.68;;;7.78;;
39846;SDS011;25517;52.422;10.782;2023-05-07T20:32:16;11.00;;;8.07;;
39846;SDS011;25517;52.422;10.782;2023-05-07T20:34:45;11.02;;;7.50;;
39846;SDS011;25517;52.422;10.782;2023-05-07T20:37:11;9.85;;;7.72;;
39846;SDS011;25517;52.422;10.782;2023-05-07T20:39:39;9.15;;;7.88;;
39846;SDS011;25517;52.422;10.782;2023-05-07T20:42:05;11.50;;;7.88;;
39846;SDS011;25517;52.422;10.782;2023-05-07T20:44:31;11.98;;;9.13;;
39846;SDS011;25517;52.422;10.782;2023-05-07T20:46:57;9.75;;;7.75;;
39846;SDS011;25517;52.422;10.782;2023-05-07T20:49:23;10.55;;;7.60;;
39846;SDS011;25517;52.422;10.782;2023-05-07T20:51:49;10.57;;;8.57;;
39846;SDS011;25517;52.422;10.782;2023-05-07T20:54:15;10.25;;;8.30;;
39846;SDS011;25517;52.422;10.782;2023-05-07T20:56:41;10.93;;;8.70;;
39846;SDS011;25517;52.422;10.782;2023-05-07T20:59:06;11.43;;;8.80;;
39846;SDS011;25517;52.422;10.782;2023-05-07T21:01:32;10.27;;;8.38;;
39846;SDS011;25517;52.422;10.782;2023-05-07T21:03:58;12.45;;;8.55;;
39846;SDS011;25517;52.422;10.782;2023-05-07T21:06:24;11.63;;;8.85;;
39846;SDS011;25517;52.422;10.782;2023-05-07T21:08:50;12.85;;;8.48;;
39846;SDS011;25517;52.422;10.782;2023-05-07T21:11:15;10.32;;;8.40;;
39846;SDS011;25517;52.422;10.782;2023-05-07T21:13:41;11.75;;;8.30;;
39846;SDS011;25517;52.422;10.782;2023-05-07T21:16:07;12.93;;;8.35;;
39846;SDS011;25517;52.422;10.782;2023-05-07T21:18:34;10.15;;;8.00;;
39846;SDS011;25517;52.422;10.782;2023-05-07T21:20:59;11.40;;;7.57;;
39846;SDS011;25517;52.422;10.782;2023-05-07T21:23:25;10.80;;;7.55;;
39846;SDS011;25517;52.422;10.782;2023-05-07T21:25:50;8.32;;;6.97;;
39846;SDS011;25517;52.422;10.782;2023-05-07T21:28:16;8.23;;;7.13;;
39846;SDS011;25517;52.422;10.782;2023-05-07T21:30:42;9.77;;;7.95;;
39846;SDS011;25517;52.422;10.782;2023-05-07T21:33:07;8.13;;;7.03;;
39846;SDS011;25517;52.422;10.782;2023-05-07T21:35:33;9.35;;;7.75;;
39846;SDS011;25517;52.422;10.782;2023-05-07T21:37:59;20.00;;;7.47;;
39846;SDS011;25517;52.422;10.782;2023-05-07T21:40:26;8.07;;;7.07;;
39846;SDS011;25517;52.422;10.782;2023-05-07T21:42:52;9.38;;;7.20;;
39846;SDS011;25517;52.422;10.782;2023-05-07T21:45:18;7.90;;;6.78;;
39846;SDS011;25517;52.422;10.782;2023-05-07T21:47:43;8.65;;;7.75;;
39846;SDS011;25517;52.422;10.782;2023-05-07T21:50:10;10.55;;;7.47;;
39846;SDS011;25517;52.422;10.782;2023-05-07T21:52:36;10.32;;;7.25;;
39846;SDS011;25517;52.422;10.782;2023-05-07T21:55:01;9.48;;;7.50;;
39846;SDS011;25517;52.422;10.782;2023-05-07T21:57:28;10.23;;;8.20;;
39846;SDS011;25517;52.422;10.782;2023-05-07T21:59:53;7.47;;;6.78;;
39846;SDS011;25517;52.422;10.782;2023-05-07T22:02:19;8.80;;;7.15;;
39846;SDS011;25517;52.422;10.782;2023-05-07T22:04:44;10.20;;;7.20;;
39846;SDS011;25517;52.422;10.782;2023-05-07T22:07:10;8.35;;;7.43;;
39846;SDS011;25517;52.422;10.782;2023-05-07T22:09:35;9.57;;;6.97;;
39846;SDS011;25517;52.422;10.782;2023-05-07T22:12:01;7.30;;;6.53;;
39846;SDS011;25517;52.422;10.782;2023-05-07T22:14:27;8.73;;;7.22;;
39846;SDS011;25517;52.422;10.782;2023-05-07T22:16:52;9.13;;;8.15;;
39846;SDS011;25517;52.422;10.782;2023-05-07T22:19:18;7.68;;;6.70;;
39846;SDS011;25517;52.422;10.782;2023-05-07T22:21:43;7.55;;;6.75;;
39846;SDS011;25517;52.422;10.782;2023-05-07T22:24:09;8.40;;;7.00;;
39846;SDS011;25517;52.422;10.782;2023-05-07T22:26:35;11.73;;;7.45;;
39846;SDS011;25517;52.422;10.782;2023-05-07T22:29:01;10.02;;;7.13;;
39846;SDS011;25517;52.422;10.782;2023-05-07T22:31:26;8.15;;;7.22;;
39846;SDS011;25517;52.422;10.782;2023-05-07T22:33:52;9.15;;;7.68;;
39846;SDS011;25517;52.422;10.782;2023-05-07T22:36:18;8.73;;;7.43;;
39846;SDS011;25517;52.422;10.782;2023-05-07T22:38:43;8.40;;;7.50;;
39846;SDS011;25517;52.422;10.782;2023-05-07T22:41:09;7.63;;;6.75;;
39846;SDS011;25517;52.422;10.782;2023-05-07T22:43:34;9.68;;;7.68;;
39846;SDS011;25517;52.422;10.782;2023-05-07T22:46:00;8.95;;;7.50;;
39846;SDS011;25517;52.422;10.782;2023-05-07T22:48:26;9.52;;;8.40;;
39846;SDS011;25517;52.422;10.782;2023-05-07T22:50:52;10.07;;;8.45;;
39846;SDS011;25517;52.422;10.782;2023-05-07T22:53:18;11.00;;;8.63;;
39846;SDS011;25517;52.422;10.782;2023-05-07T22:55:44;10.23;;;8.93;;
39846;SDS011;25517;52.422;10.782;2023-05-07T22:58:10;10.20;;;8.95;;
39846;SDS011;25517;52.422;10.782;2023-05-07T23:00:35;11.98;;;9.38;;
39846;SDS011;25517;52.422;10.782;2023-05-07T23:03:01;11.75;;;9.45;;
39846;SDS011;25517;52.422;10.782;2023-05-07T23:05:27;10.18;;;8.90;;
39846;SDS011;25517;52.422;10.782;2023-05-07T23:07:52;9.90;;;8.77;;
39846;SDS011;25517;52.422;10.782;2023-05-07T23:10:18;10.50;;;9.43;;
39846;SDS011;25517;52.422;10.782;2023-05-07T23:12:44;13.15;;;9.50;;
39846;SDS011;25517;52.422;10.782;2023-05-07T23:15:13;10.38;;;9.27;;
39846;SDS011;25517;52.422;10.782;2023-05-07T23:17:44;11.10;;;9.85;;
39846;SDS011;25517;52.422;10.782;2023-05-07T23:20:10;10.57;;;9.18;;
39846;SDS011;25517;52.422;10.782;2023-05-07T23:22:37;10.70;;;9.60;;
39846;SDS011;25517;52.422;10.782;2023-05-07T23:25:02;11.23;;;9.20;;
39846;SDS011;25517;52.422;10.782;2023-05-07T23:27:28;10.82;;;9.73;;
39846;SDS011;25517;52.422;10.782;2023-05-07T23:29:55;11.85;;;9.00;;
39846;SDS011;25517;52.422;10.782;2023-05-07T23:32:20;10.38;;;8.77;;
39846;SDS011;25517;52.422;10.782;2023-05-07T23:34:49;11.85;;;9.35;;
39846;SDS011;25517;52.422;10.782;2023-05-07T23:37:15;11.75;;;9.82;;
39846;SDS011;25517;52.422;10.782;2023-05-07T23:39:40;8.60;;;7.70;;
39846;SDS011;25517;52.422;10.782;2023-05-07T23:42:06;10.75;;;9.18;;
39846;SDS011;25517;52.422;10.782;2023-05-07T23:44:32;11.15;;;8.48;;
39846;SDS011;25517;52.422;10.782;2023-05-07T23:46:57;10.73;;;8.68;;
39846;SDS011;25517;52.422;10.782;2023-05-07T23:49:23;9.40;;;8.32;;
39846;SDS011;25517;52.422;10.782;2023-05-07T23:51:48;9.52;;;8.23;;
39846;SDS011;25517;52.422;10.782;2023-05-07T23:54:14;9.18;;;8.15;;
39846;SDS011;25517;52.422;10.782;2023-05-07T23:56:39;8.80;;;7.60;;
39846;SDS011;25517;52.422;10.782;2023-05-07T23:59:05;11.65;;;9.13;;
